sensor_id;sensor_type;location;lat;lon;timestamp;temperature;humidity
31387;DHT22;69978;50.096;8.448;2024-03-08T00:00:34;5.80;99.90
31387;DHT22;69978;50.096;8.448;2024-03-08T00:03:00;5.80;99.90
31387;DHT22;69978;50.096;8.448;2024-03-08T00:05:28;5.70;99.90
31387;DHT22;69978;50.096;8.448;2024-03-08T00:07:54;5.70;99.90
31387;DHT22;69978;50.096;8.448;2024-03-08T00:10:19;5.70;99.90
31387;DHT22;69978;50.096;8.448;2024-03-08T00:12:46;5.60;99.90
31387;DHT22;69978;50.096;8.448;2024-03-08T00:15:13;5.60;99.90
31387;DHT22;69978;50.096;8.448;2024-03-08T00:17:43;5.60;99.90
31387;DHT22;69978;50.096;8.448;2024-03-08T00:20:09;5.60;99.90
31387;DHT22;69978;50.096;8.448;2024-03-08T00:22:36;5.50;99.90
31387;DHT22;69978;50.096;8.448;2024-03-08T00:25:02;5.60;99.90
31387;DHT22;69978;50.096;8.448;2024-03-08T00:27:28;5.50;99.90
31387;DHT22;69978;50.096;8.448;2024-03-08T00:29:56;5.40;99.90
31387;DHT22;69978;50.096;8.448;2024-03-08T00:32:21;5.50;99.90
31387;DHT22;69978;50.096;8.448;2024-03-08T00:34:49;5.40;99.90
31387;DHT22;69978;50.096;8.448;2024-03-08T00:37:17;5.40;99.90
31387;DHT22;69978;50.096;8.448;2024-03-08T00:39:43;5.30;99.90
31387;DHT22;69978;50.096;8.448;2024-03-08T00:42:09;5.30;99.90
31387;DHT22;69978;50.096;8.448;2024-03-08T00:44:34;5.20;99.90
31387;DHT22;69978;50.096;8.448;2024-03-08T00:47:00;5.20;99.90
31387;DHT22;69978;50.096;8.448;2024-03-08T00:49:25;5.20;99.90
31387;DHT22;69978;50.096;8.448;2024-03-08T00:51:51;5.10;99.90
31387;DHT22;69978;50.096;8.448;2024-03-08T00:54:16;5.10;99.90
31387;DHT22;69978;50.096;8.448;2024-03-08T00:56:42;5.10;99.90
31387;DHT22;69978;50.096;8.448;2024-03-08T00:59:08;5.10;99.90
31387;DHT22;69978;50.096;8.448;2024-03-08T01:01:33;5.00;99.90
31387;DHT22;69978;50.096;8.448;2024-03-08T01:03:59;5.00;99.90
31387;DHT22;69978;50.096;8.448;2024-03-08T01:06:24;5.00;99.90
31387;DHT22;69978;50.096;8.448;2024-03-08T01:08:50;5.00;99.90
31387;DHT22;69978;50.096;8.448;2024-03-08T01:11:18;4.90;99.90
31387;DHT22;69978;50.096;8.448;2024-03-08T01:13:44;4.90;99.90
31387;DHT22;69978;50.096;8.448;2024-03-08T01:16:12;4.80;99.90
31387;DHT22;69978;50.096;8.448;2024-03-08T01:18:38;4.80;99.90
31387;DHT22;69978;50.096;8.448;2024-03-08T01:21:04;4.80;99.90
31387;DHT22;69978;50.096;8.448;2024-03-08T01:23:29;4.80;99.90
31387;DHT22;69978;50.096;8.448;2024-03-08T01:25:55;4.80;99.90
31387;DHT22;69978;50.096;8.448;2024-03-08T01:28:26;4.70;99.90
31387;DHT22;69978;50.096;8.448;2024-03-08T01:30:52;4.70;99.90
31387;DHT22;69978;50.096;8.448;2024-03-08T01:33:25;4.70;99.90
31387;DHT22;69978;50.096;8.448;2024-03-08T01:35:52;4.60;99.90
31387;DHT22;69978;50.096;8.448;2024-03-08T01:38:18;4.50;99.90
31387;DHT22;69978;50.096;8.448;2024-03-08T01:40:44;4.50;99.90
31387;DHT22;69978;50.096;8.448;2024-03-08T01:43:36;4.50;99.90
31387;DHT22;69978;50.096;8.448;2024-03-08T01:46:01;4.50;99.90
31387;DHT22;69978;50.096;8.448;2024-03-08T01:48:28;4.50;99.90
31387;DHT22;69978;50.096;8.448;2024-03-08T01:50:58;4.50;99.90
31387;DHT22;69978;50.096;8.448;2024-03-08T01:53:24;4.50;99.90
31387;DHT22;69978;50.096;8.448;2024-03-08T01:55:54;4.40;99.90
31387;DHT22;69978;50.096;8.448;2024-03-08T01:58:22;4.40;99.90
31387;DHT22;69978;50.096;8.448;2024-03-08T02:00:48;4.40;99.90
31387;DHT22;69978;50.096;8.448;2024-03-08T02:03:15;4.40;99.90
31387;DHT22;69978;50.096;8.448;2024-03-08T02:05:41;4.30;99.90
31387;DHT22;69978;50.096;8.448;2024-03-08T02:08:08;4.30;99.90
31387;DHT22;69978;50.096;8.448;2024-03-08T02:10:38;4.30;99.90
31387;DHT22;69978;50.096;8.448;2024-03-08T02:13:04;4.30;99.90
31387;DHT22;69978;50.096;8.448;2024-03-08T02:18:21;4.20;99.90
31387;DHT22;69978;50.096;8.448;2024-03-08T02:20:51;4.20;99.90
31387;DHT22;69978;50.096;8.448;2024-03-08T02:23:18;4.10;99.90
31387;DHT22;69978;50.096;8.448;2024-03-08T02:25:44;4.10;99.90
31387;DHT22;69978;50.096;8.448;2024-03-08T02:28:11;4.10;99.90
31387;DHT22;69978;50.096;8.448;2024-03-08T02:30:37;4.10;99.90
31387;DHT22;69978;50.096;8.448;2024-03-08T02:33:04;4.10;99.90
31387;DHT22;69978;50.096;8.448;2024-03-08T02:35:30;4.00;99.90
31387;DHT22;69978;50.096;8.448;2024-03-08T02:37:55;4.00;99.90
31387;DHT22;69978;50.096;8.448;2024-03-08T02:40:21;4.00;99.90
31387;DHT22;69978;50.096;8.448;2024-03-08T02:42:47;4.00;99.90
31387;DHT22;69978;50.096;8.448;2024-03-08T02:45:13;4.00;99.90
31387;DHT22;69978;50.096;8.448;2024-03-08T02:47:39;4.00;99.90
31387;DHT22;69978;50.096;8.448;2024-03-08T02:50:05;3.90;99.90
31387;DHT22;69978;50.096;8.448;2024-03-08T02:52:36;4.00;99.90
31387;DHT22;69978;50.096;8.448;2024-03-08T02:55:02;3.90;99.90
31387;DHT22;69978;50.096;8.448;2024-03-08T02:57:28;3.90;99.90
31387;DHT22;69978;50.096;8.448;2024-03-08T02:59:54;3.90;99.90
31387;DHT22;69978;50.096;8.448;2024-03-08T03:02:19;3.90;99.90
31387;DHT22;69978;50.096;8.448;2024-03-08T03:04:45;3.80;99.90
31387;DHT22;69978;50.096;8.448;2024-03-08T03:07:11;3.80;99.90
31387;DHT22;69978;50.096;8.448;2024-03-08T03:09:36;3.80;99.90
31387;DHT22;69978;50.096;8.448;2024-03-08T03:12:02;3.70;99.90
31387;DHT22;69978;50.096;8.448;2024-03-08T03:14:28;3.80;99.90
31387;DHT22;69978;50.096;8.448;2024-03-08T03:16:54;3.70;99.90
31387;DHT22;69978;50.096;8.448;2024-03-08T03:19:20;3.70;99.90
31387;DHT22;69978;50.096;8.448;2024-03-08T03:21:46;3.70;99.90
31387;DHT22;69978;50.096;8.448;2024-03-08T03:24:12;3.60;99.90
31387;DHT22;69978;50.096;8.448;2024-03-08T03:26:41;3.60;99.90
31387;DHT22;69978;50.096;8.448;2024-03-08T03:29:09;3.70;99.90
31387;DHT22;69978;50.096;8.448;2024-03-08T03:31:36;3.60;99.90
31387;DHT22;69978;50.096;8.448;2024-03-08T03:34:02;3.60;99.90
31387;DHT22;69978;50.096;8.448;2024-03-08T03:36:30;3.60;99.90
31387;DHT22;69978;50.096;8.448;2024-03-08T03:38:56;3.50;99.90
31387;DHT22;69978;50.096;8.448;2024-03-08T03:41:32;3.50;99.90
31387;DHT22;69978;50.096;8.448;2024-03-08T03:43:57;3.50;99.90
31387;DHT22;69978;50.096;8.448;2024-03-08T03:46:24;3.50;99.90
31387;DHT22;69978;50.096;8.448;2024-03-08T03:48:49;3.50;99.90
31387;DHT22;69978;50.096;8.448;2024-03-08T03:51:15;3.50;99.90
31387;DHT22;69978;50.096;8.448;2024-03-08T03:53:41;3.50;99.90
31387;DHT22;69978;50.096;8.448;2024-03-08T03:56:07;3.40;99.90
31387;DHT22;69978;50.096;8.448;2024-03-08T03:58:33;3.50;99.90
31387;DHT22;69978;50.096;8.448;2024-03-08T04:00:58;3.40;99.90
31387;DHT22;69978;50.096;8.448;2024-03-08T04:03:24;3.40;99.90
31387;DHT22;69978;50.096;8.448;2024-03-08T04:05:49;3.40;99.90
31387;DHT22;69978;50.096;8.448;2024-03-08T04:08:16;3.40;99.90
31387;DHT22;69978;50.096;8.448;2024-03-08T04:10:42;3.30;99.90
31387;DHT22;69978;50.096;8.448;2024-03-08T04:13:08;3.30;99.90
31387;DHT22;69978;50.096;8.448;2024-03-08T04:15:35;3.30;99.90
31387;DHT22;69978;50.096;8.448;2024-03-08T04:18:00;3.30;99.90
31387;DHT22;69978;50.096;8.448;2024-03-08T04:20:27;3.30;99.90
31387;DHT22;69978;50.096;8.448;2024-03-08T04:22:52;3.30;99.90
31387;DHT22;69978;50.096;8.448;2024-03-08T04:25:18;3.20;99.90
31387;DHT22;69978;50.096;8.448;2024-03-08T04:27:44;3.20;99.90
31387;DHT22;69978;50.096;8.448;2024-03-08T04:30:10;3.20;99.90
31387;DHT22;69978;50.096;8.448;2024-03-08T04:32:36;3.20;99.90
31387;DHT22;69978;50.096;8.448;2024-03-08T04:35:01;3.20;99.90
31387;DHT22;69978;50.096;8.448;2024-03-08T04:37:28;3.10;99.90
31387;DHT22;69978;50.096;8.448;2024-03-08T04:39:57;3.10;99.90
31387;DHT22;69978;50.096;8.448;2024-03-08T04:42:22;3.10;99.90
31387;DHT22;69978;50.096;8.448;2024-03-08T04:44:48;3.20;99.90
31387;DHT22;69978;50.096;8.448;2024-03-08T04:47:14;3.10;99.90
31387;DHT22;69978;50.096;8.448;2024-03-08T04:49:39;3.10;99.90
31387;DHT22;69978;50.096;8.448;2024-03-08T04:52:05;3.10;99.90
31387;DHT22;69978;50.096;8.448;2024-03-08T04:54:32;3.00;99.90
31387;DHT22;69978;50.096;8.448;2024-03-08T04:56:58;3.00;99.90
31387;DHT22;69978;50.096;8.448;2024-03-08T04:59:26;3.10;99.90
31387;DHT22;69978;50.096;8.448;2024-03-08T05:01:52;3.00;99.90
31387;DHT22;69978;50.096;8.448;2024-03-08T05:04:17;3.00;99.90
31387;DHT22;69978;50.096;8.448;2024-03-08T05:06:43;2.90;99.90
31387;DHT22;69978;50.096;8.448;2024-03-08T05:09:08;2.90;99.90
31387;DHT22;69978;50.096;8.448;2024-03-08T05:11:45;2.90;99.90
31387;DHT22;69978;50.096;8.448;2024-03-08T05:14:11;2.90;99.90
31387;DHT22;69978;50.096;8.448;2024-03-08T05:16:44;2.90;99.90
31387;DHT22;69978;50.096;8.448;2024-03-08T05:19:20;2.90;99.90
31387;DHT22;69978;50.096;8.448;2024-03-08T05:21:49;2.80;99.90
31387;DHT22;69978;50.096;8.448;2024-03-08T05:24:16;2.80;99.90
31387;DHT22;69978;50.096;8.448;2024-03-08T05:26:42;2.80;99.90
31387;DHT22;69978;50.096;8.448;2024-03-08T05:29:08;2.80;99.90
31387;DHT22;69978;50.096;8.448;2024-03-08T05:31:47;2.90;99.90
31387;DHT22;69978;50.096;8.448;2024-03-08T05:34:13;2.80;99.90
31387;DHT22;69978;50.096;8.448;2024-03-08T05:36:43;2.90;99.90
31387;DHT22;69978;50.096;8.448;2024-03-08T05:39:18;2.70;99.90
31387;DHT22;69978;50.096;8.448;2024-03-08T05:41:45;2.70;99.90
31387;DHT22;69978;50.096;8.448;2024-03-08T05:44:11;2.70;99.90
31387;DHT22;69978;50.096;8.448;2024-03-08T05:46:37;2.70;99.90
31387;DHT22;69978;50.096;8.448;2024-03-08T05:49:06;2.70;99.90
31387;DHT22;69978;50.096;8.448;2024-03-08T05:51:33;2.70;99.90
31387;DHT22;69978;50.096;8.448;2024-03-08T05:54:05;2.70;99.90
31387;DHT22;69978;50.096;8.448;2024-03-08T05:56:34;2.70;99.90
31387;DHT22;69978;50.096;8.448;2024-03-08T05:58:59;2.70;99.90
31387;DHT22;69978;50.096;8.448;2024-03-08T06:01:25;2.70;99.90
31387;DHT22;69978;50.096;8.448;2024-03-08T06:03:52;2.70;99.90
31387;DHT22;69978;50.096;8.448;2024-03-08T06:06:21;2.70;99.90
31387;DHT22;69978;50.096;8.448;2024-03-08T06:08:47;2.60;99.90
31387;DHT22;69978;50.096;8.448;2024-03-08T06:11:14;2.60;99.90
31387;DHT22;69978;50.096;8.448;2024-03-08T06:13:40;2.60;99.90
31387;DHT22;69978;50.096;8.448;2024-03-08T06:16:06;2.60;99.90
31387;DHT22;69978;50.096;8.448;2024-03-08T06:18:34;2.70;99.90
31387;DHT22;69978;50.096;8.448;2024-03-08T06:21:02;2.60;99.90
31387;DHT22;69978;50.096;8.448;2024-03-08T06:23:28;2.60;99.90
31387;DHT22;69978;50.096;8.448;2024-03-08T06:25:54;2.60;99.90
31387;DHT22;69978;50.096;8.448;2024-03-08T06:28:20;2.60;99.90
31387;DHT22;69978;50.096;8.448;2024-03-08T06:30:45;2.60;99.90
31387;DHT22;69978;50.096;8.448;2024-03-08T06:33:11;2.60;99.90
31387;DHT22;69978;50.096;8.448;2024-03-08T06:35:37;2.70;99.90
31387;DHT22;69978;50.096;8.448;2024-03-08T06:38:05;2.70;99.90
31387;DHT22;69978;50.096;8.448;2024-03-08T06:40:30;2.70;99.90
31387;DHT22;69978;50.096;8.448;2024-03-08T06:42:56;2.70;99.90
31387;DHT22;69978;50.096;8.448;2024-03-08T06:45:22;2.70;99.90
31387;DHT22;69978;50.096;8.448;2024-03-08T06:47:49;2.70;99.90
31387;DHT22;69978;50.096;8.448;2024-03-08T06:50:15;2.70;99.90
31387;DHT22;69978;50.096;8.448;2024-03-08T06:52:41;2.70;99.90
31387;DHT22;69978;50.096;8.448;2024-03-08T06:55:12;2.70;99.90
31387;DHT22;69978;50.096;8.448;2024-03-08T06:57:40;2.80;99.90
31387;DHT22;69978;50.096;8.448;2024-03-08T07:00:09;2.80;99.90
31387;DHT22;69978;50.096;8.448;2024-03-08T07:02:37;2.80;99.90
31387;DHT22;69978;50.096;8.448;2024-03-08T07:05:05;2.80;99.90
31387;DHT22;69978;50.096;8.448;2024-03-08T07:07:31;2.90;99.90
31387;DHT22;69978;50.096;8.448;2024-03-08T07:09:59;2.90;99.90
31387;DHT22;69978;50.096;8.448;2024-03-08T07:12:24;2.90;99.90
31387;DHT22;69978;50.096;8.448;2024-03-08T07:14:51;3.00;99.90
31387;DHT22;69978;50.096;8.448;2024-03-08T07:17:16;3.00;99.90
31387;DHT22;69978;50.096;8.448;2024-03-08T07:19:42;3.10;99.90
31387;DHT22;69978;50.096;8.448;2024-03-08T07:22:08;3.10;99.90
31387;DHT22;69978;50.096;8.448;2024-03-08T07:24:37;3.10;99.90
31387;DHT22;69978;50.096;8.448;2024-03-08T07:27:05;3.20;99.90
31387;DHT22;69978;50.096;8.448;2024-03-08T07:29:34;3.20;99.90
31387;DHT22;69978;50.096;8.448;2024-03-08T07:32:00;3.20;99.90
31387;DHT22;69978;50.096;8.448;2024-03-08T07:34:26;3.30;99.90
31387;DHT22;69978;50.096;8.448;2024-03-08T07:36:51;3.30;99.90
31387;DHT22;69978;50.096;8.448;2024-03-08T07:39:17;3.40;99.90
31387;DHT22;69978;50.096;8.448;2024-03-08T07:41:42;3.40;99.90
31387;DHT22;69978;50.096;8.448;2024-03-08T07:44:08;3.50;99.90
31387;DHT22;69978;50.096;8.448;2024-03-08T07:46:34;3.50;99.90
31387;DHT22;69978;50.096;8.448;2024-03-08T07:49:00;3.60;99.90
31387;DHT22;69978;50.096;8.448;2024-03-08T07:51:26;3.70;99.90
31387;DHT22;69978;50.096;8.448;2024-03-08T07:53:51;3.80;99.90
31387;DHT22;69978;50.096;8.448;2024-03-08T07:56:17;3.80;99.90
31387;DHT22;69978;50.096;8.448;2024-03-08T07:58:44;3.80;99.90
31387;DHT22;69978;50.096;8.448;2024-03-08T08:01:17;3.90;99.90
31387;DHT22;69978;50.096;8.448;2024-03-08T08:03:43;3.90;99.90
31387;DHT22;69978;50.096;8.448;2024-03-08T08:06:09;4.00;99.90
31387;DHT22;69978;50.096;8.448;2024-03-08T08:08:35;4.10;99.90
31387;DHT22;69978;50.096;8.448;2024-03-08T08:11:02;4.20;99.90
31387;DHT22;69978;50.096;8.448;2024-03-08T08:13:28;4.30;99.90
31387;DHT22;69978;50.096;8.448;2024-03-08T08:15:57;4.30;99.90
31387;DHT22;69978;50.096;8.448;2024-03-08T08:18:23;4.50;99.90
31387;DHT22;69978;50.096;8.448;2024-03-08T08:20:51;4.50;99.90
31387;DHT22;69978;50.096;8.448;2024-03-08T08:23:18;4.60;99.90
31387;DHT22;69978;50.096;8.448;2024-03-08T08:25:45;4.70;99.90
31387;DHT22;69978;50.096;8.448;2024-03-08T08:28:11;4.90;99.90
31387;DHT22;69978;50.096;8.448;2024-03-08T08:30:38;4.90;99.90
31387;DHT22;69978;50.096;8.448;2024-03-08T08:33:04;5.10;99.90
31387;DHT22;69978;50.096;8.448;2024-03-08T08:35:31;5.20;99.90
31387;DHT22;69978;50.096;8.448;2024-03-08T08:37:58;5.30;99.90
31387;DHT22;69978;50.096;8.448;2024-03-08T08:40:24;5.50;99.90
31387;DHT22;69978;50.096;8.448;2024-03-08T08:42:51;5.60;99.90
31387;DHT22;69978;50.096;8.448;2024-03-08T08:45:18;5.80;99.90
31387;DHT22;69978;50.096;8.448;2024-03-08T08:47:44;6.10;99.90
31387;DHT22;69978;50.096;8.448;2024-03-08T08:50:10;6.30;99.90
31387;DHT22;69978;50.096;8.448;2024-03-08T08:52:40;6.40;99.90
31387;DHT22;69978;50.096;8.448;2024-03-08T08:55:06;6.60;99.90
31387;DHT22;69978;50.096;8.448;2024-03-08T08:57:32;6.80;99.90
31387;DHT22;69978;50.096;8.448;2024-03-08T09:00:01;7.00;99.90
31387;DHT22;69978;50.096;8.448;2024-03-08T09:02:33;7.20;99.90
31387;DHT22;69978;50.096;8.448;2024-03-08T09:04:58;7.30;99.90
31387;DHT22;69978;50.096;8.448;2024-03-08T09:07:24;7.50;99.90
31387;DHT22;69978;50.096;8.448;2024-03-08T09:09:49;7.80;99.90
31387;DHT22;69978;50.096;8.448;2024-03-08T09:12:15;7.90;99.90
31387;DHT22;69978;50.096;8.448;2024-03-08T09:14:41;8.10;99.90
31387;DHT22;69978;50.096;8.448;2024-03-08T09:17:08;8.20;99.90
31387;DHT22;69978;50.096;8.448;2024-03-08T09:19:36;8.50;99.90
31387;DHT22;69978;50.096;8.448;2024-03-08T09:22:06;8.60;99.90
31387;DHT22;69978;50.096;8.448;2024-03-08T09:24:32;8.80;99.90
31387;DHT22;69978;50.096;8.448;2024-03-08T09:26:57;9.10;99.90
31387;DHT22;69978;50.096;8.448;2024-03-08T09:29:26;9.40;99.90
31387;DHT22;69978;50.096;8.448;2024-03-08T09:31:51;9.60;99.90
31387;DHT22;69978;50.096;8.448;2024-03-08T09:34:17;10.00;99.90
31387;DHT22;69978;50.096;8.448;2024-03-08T09:36:44;10.40;99.90
31387;DHT22;69978;50.096;8.448;2024-03-08T09:39:09;10.90;99.90
31387;DHT22;69978;50.096;8.448;2024-03-08T09:41:42;11.70;99.90
31387;DHT22;69978;50.096;8.448;2024-03-08T09:44:08;12.30;99.90
31387;DHT22;69978;50.096;8.448;2024-03-08T09:46:34;13.00;99.90
31387;DHT22;69978;50.096;8.448;2024-03-08T09:48:59;13.50;99.90
31387;DHT22;69978;50.096;8.448;2024-03-08T09:51:28;13.70;99.90
31387;DHT22;69978;50.096;8.448;2024-03-08T09:53:54;14.20;99.90
31387;DHT22;69978;50.096;8.448;2024-03-08T09:56:22;14.50;99.90
31387;DHT22;69978;50.096;8.448;2024-03-08T09:58:49;15.00;99.90
31387;DHT22;69978;50.096;8.448;2024-03-08T10:01:33;15.00;99.90
31387;DHT22;69978;50.096;8.448;2024-03-08T10:03:59;15.20;99.90
31387;DHT22;69978;50.096;8.448;2024-03-08T10:06:24;15.60;99.90
31387;DHT22;69978;50.096;8.448;2024-03-08T10:08:51;15.90;99.90
31387;DHT22;69978;50.096;8.448;2024-03-08T10:11:19;15.90;99.90
31387;DHT22;69978;50.096;8.448;2024-03-08T10:13:47;16.40;99.90
31387;DHT22;69978;50.096;8.448;2024-03-08T10:16:13;16.50;99.90
31387;DHT22;69978;50.096;8.448;2024-03-08T10:18:39;16.20;99.90
31387;DHT22;69978;50.096;8.448;2024-03-08T10:21:06;16.40;99.90
31387;DHT22;69978;50.096;8.448;2024-03-08T10:23:33;16.60;99.90
31387;DHT22;69978;50.096;8.448;2024-03-08T10:26:10;16.80;99.90
31387;DHT22;69978;50.096;8.448;2024-03-08T10:28:35;17.10;99.90
31387;DHT22;69978;50.096;8.448;2024-03-08T10:31:06;17.30;99.90
31387;DHT22;69978;50.096;8.448;2024-03-08T10:33:32;17.00;99.90
31387;DHT22;69978;50.096;8.448;2024-03-08T10:35:59;17.50;99.90
31387;DHT22;69978;50.096;8.448;2024-03-08T10:38:26;17.70;99.90
31387;DHT22;69978;50.096;8.448;2024-03-08T10:41:31;17.50;99.90
31387;DHT22;69978;50.096;8.448;2024-03-08T10:49:17;17.70;99.90
31387;DHT22;69978;50.096;8.448;2024-03-08T10:51:44;17.80;99.90
31387;DHT22;69978;50.096;8.448;2024-03-08T10:54:10;17.80;99.90
31387;DHT22;69978;50.096;8.448;2024-03-08T10:56:37;17.90;99.90
31387;DHT22;69978;50.096;8.448;2024-03-08T10:59:04;17.70;99.90
31387;DHT22;69978;50.096;8.448;2024-03-08T11:01:30;18.00;99.90
31387;DHT22;69978;50.096;8.448;2024-03-08T11:03:56;18.00;99.90
31387;DHT22;69978;50.096;8.448;2024-03-08T11:09:08;18.30;99.90
31387;DHT22;69978;50.096;8.448;2024-03-08T11:11:38;18.50;99.90
31387;DHT22;69978;50.096;8.448;2024-03-08T11:14:43;18.60;99.90
31387;DHT22;69978;50.096;8.448;2024-03-08T11:17:09;18.40;99.90
31387;DHT22;69978;50.096;8.448;2024-03-08T11:19:35;17.90;99.90
31387;DHT22;69978;50.096;8.448;2024-03-08T11:22:02;17.80;99.90
31387;DHT22;69978;50.096;8.448;2024-03-08T11:24:36;17.90;99.90
31387;DHT22;69978;50.096;8.448;2024-03-08T11:27:03;18.00;99.90
31387;DHT22;69978;50.096;8.448;2024-03-08T11:32:15;17.80;99.90
31387;DHT22;69978;50.096;8.448;2024-03-08T11:34:45;18.00;99.90
31387;DHT22;69978;50.096;8.448;2024-03-08T11:37:19;18.00;99.90
31387;DHT22;69978;50.096;8.448;2024-03-08T11:39:54;17.80;99.90
31387;DHT22;69978;50.096;8.448;2024-03-08T11:42:24;18.10;99.90
31387;DHT22;69978;50.096;8.448;2024-03-08T11:44:52;18.00;99.90
31387;DHT22;69978;50.096;8.448;2024-03-08T11:47:19;18.00;99.90
31387;DHT22;69978;50.096;8.448;2024-03-08T11:49:45;17.80;99.90
31387;DHT22;69978;50.096;8.448;2024-03-08T11:52:14;17.70;99.90
31387;DHT22;69978;50.096;8.448;2024-03-08T11:54:41;17.50;99.90
31387;DHT22;69978;50.096;8.448;2024-03-08T11:57:09;17.70;99.90
31387;DHT22;69978;50.096;8.448;2024-03-08T11:59:53;17.60;99.90
31387;DHT22;69978;50.096;8.448;2024-03-08T12:02:24;17.40;99.90
31387;DHT22;69978;50.096;8.448;2024-03-08T12:08:13;17.30;99.90
31387;DHT22;69978;50.096;8.448;2024-03-08T12:10:40;17.00;99.90
31387;DHT22;69978;50.096;8.448;2024-03-08T12:13:07;17.10;99.90
31387;DHT22;69978;50.096;8.448;2024-03-08T12:15:47;16.90;99.90
31387;DHT22;69978;50.096;8.448;2024-03-08T12:18:16;16.50;99.90
31387;DHT22;69978;50.096;8.448;2024-03-08T12:21:03;16.60;99.90
31387;DHT22;69978;50.096;8.448;2024-03-08T12:27:22;16.30;99.90
31387;DHT22;69978;50.096;8.448;2024-03-08T12:29:51;16.40;99.90
31387;DHT22;69978;50.096;8.448;2024-03-08T12:32:28;16.20;99.90
31387;DHT22;69978;50.096;8.448;2024-03-08T12:35:26;16.20;99.90
31387;DHT22;69978;50.096;8.448;2024-03-08T12:38:10;16.30;99.90
31387;DHT22;69978;50.096;8.448;2024-03-08T12:40:36;16.40;99.90
31387;DHT22;69978;50.096;8.448;2024-03-08T12:43:10;16.60;99.90
31387;DHT22;69978;50.096;8.448;2024-03-08T12:45:37;16.50;99.90
31387;DHT22;69978;50.096;8.448;2024-03-08T12:48:12;16.50;99.90
31387;DHT22;69978;50.096;8.448;2024-03-08T12:50:43;16.60;99.90
31387;DHT22;69978;50.096;8.448;2024-03-08T12:53:36;16.40;99.90
31387;DHT22;69978;50.096;8.448;2024-03-08T12:56:06;16.10;99.90
31387;DHT22;69978;50.096;8.448;2024-03-08T12:58:34;16.20;99.90
31387;DHT22;69978;50.096;8.448;2024-03-08T13:01:02;16.10;99.90
31387;DHT22;69978;50.096;8.448;2024-03-08T13:03:30;16.10;99.90
31387;DHT22;69978;50.096;8.448;2024-03-08T13:05:56;16.10;99.90
31387;DHT22;69978;50.096;8.448;2024-03-08T13:08:22;16.30;99.90
31387;DHT22;69978;50.096;8.448;2024-03-08T13:10:50;16.50;99.90
31387;DHT22;69978;50.096;8.448;2024-03-08T13:13:16;16.70;99.90
31387;DHT22;69978;50.096;8.448;2024-03-08T13:15:42;16.80;99.90
31387;DHT22;69978;50.096;8.448;2024-03-08T13:18:08;16.40;99.90
31387;DHT22;69978;50.096;8.448;2024-03-08T13:20:34;16.10;99.90
31387;DHT22;69978;50.096;8.448;2024-03-08T13:23:03;15.80;99.90
31387;DHT22;69978;50.096;8.448;2024-03-08T13:25:30;15.80;99.90
31387;DHT22;69978;50.096;8.448;2024-03-08T13:27:56;15.90;99.90
31387;DHT22;69978;50.096;8.448;2024-03-08T13:30:24;15.70;99.90
31387;DHT22;69978;50.096;8.448;2024-03-08T13:32:52;15.70;99.90
31387;DHT22;69978;50.096;8.448;2024-03-08T13:35:18;15.60;99.90
31387;DHT22;69978;50.096;8.448;2024-03-08T13:37:50;15.30;99.90
31387;DHT22;69978;50.096;8.448;2024-03-08T13:40:16;15.50;99.90
31387;DHT22;69978;50.096;8.448;2024-03-08T13:42:46;15.50;99.90
31387;DHT22;69978;50.096;8.448;2024-03-08T13:45:12;15.50;99.90
31387;DHT22;69978;50.096;8.448;2024-03-08T13:47:43;15.40;99.90
31387;DHT22;69978;50.096;8.448;2024-03-08T13:50:10;15.40;99.90
31387;DHT22;69978;50.096;8.448;2024-03-08T13:52:45;15.30;99.90
31387;DHT22;69978;50.096;8.448;2024-03-08T13:55:10;15.20;99.90
31387;DHT22;69978;50.096;8.448;2024-03-08T13:57:39;15.30;99.90
31387;DHT22;69978;50.096;8.448;2024-03-08T14:00:08;15.20;99.90
31387;DHT22;69978;50.096;8.448;2024-03-08T14:02:33;15.30;99.90
31387;DHT22;69978;50.096;8.448;2024-03-08T14:04:59;15.20;99.90
31387;DHT22;69978;50.096;8.448;2024-03-08T14:07:27;15.10;99.90
31387;DHT22;69978;50.096;8.448;2024-03-08T14:09:54;14.80;99.90
31387;DHT22;69978;50.096;8.448;2024-03-08T14:12:20;14.80;99.90
31387;DHT22;69978;50.096;8.448;2024-03-08T14:14:45;14.90;99.90
31387;DHT22;69978;50.096;8.448;2024-03-08T14:17:11;14.80;99.90
31387;DHT22;69978;50.096;8.448;2024-03-08T14:19:42;14.90;99.90
31387;DHT22;69978;50.096;8.448;2024-03-08T14:22:07;15.00;99.90
31387;DHT22;69978;50.096;8.448;2024-03-08T14:24:36;14.90;99.90
31387;DHT22;69978;50.096;8.448;2024-03-08T14:27:02;14.80;99.90
31387;DHT22;69978;50.096;8.448;2024-03-08T14:29:29;14.80;99.90
31387;DHT22;69978;50.096;8.448;2024-03-08T14:31:58;14.70;99.90
31387;DHT22;69978;50.096;8.448;2024-03-08T14:34:27;14.60;99.90
31387;DHT22;69978;50.096;8.448;2024-03-08T14:36:55;14.60;99.90
31387;DHT22;69978;50.096;8.448;2024-03-08T14:39:21;14.70;99.90
31387;DHT22;69978;50.096;8.448;2024-03-08T14:41:47;14.70;99.90
31387;DHT22;69978;50.096;8.448;2024-03-08T14:44:13;14.50;99.90
31387;DHT22;69978;50.096;8.448;2024-03-08T14:46:40;14.60;99.90
31387;DHT22;69978;50.096;8.448;2024-03-08T14:49:07;14.50;99.90
31387;DHT22;69978;50.096;8.448;2024-03-08T14:51:33;14.50;99.90
31387;DHT22;69978;50.096;8.448;2024-03-08T14:54:00;14.50;99.90
31387;DHT22;69978;50.096;8.448;2024-03-08T14:56:26;14.40;99.90
31387;DHT22;69978;50.096;8.448;2024-03-08T14:58:52;14.40;99.90
31387;DHT22;69978;50.096;8.448;2024-03-08T15:01:18;14.40;99.90
31387;DHT22;69978;50.096;8.448;2024-03-08T15:03:49;14.10;99.90
31387;DHT22;69978;50.096;8.448;2024-03-08T15:06:15;14.20;99.90
31387;DHT22;69978;50.096;8.448;2024-03-08T15:08:45;14.20;99.90
31387;DHT22;69978;50.096;8.448;2024-03-08T15:11:11;14.30;99.90
31387;DHT22;69978;50.096;8.448;2024-03-08T15:13:37;14.20;99.90
31387;DHT22;69978;50.096;8.448;2024-03-08T15:16:10;14.10;99.90
31387;DHT22;69978;50.096;8.448;2024-03-08T15:18:42;14.10;99.90
31387;DHT22;69978;50.096;8.448;2024-03-08T15:21:12;14.10;99.90
31387;DHT22;69978;50.096;8.448;2024-03-08T15:23:38;14.00;99.90
31387;DHT22;69978;50.096;8.448;2024-03-08T15:26:09;14.10;99.90
31387;DHT22;69978;50.096;8.448;2024-03-08T15:28:34;14.00;99.90
31387;DHT22;69978;50.096;8.448;2024-03-08T15:31:04;14.00;99.90
31387;DHT22;69978;50.096;8.448;2024-03-08T15:33:33;13.90;99.90
31387;DHT22;69978;50.096;8.448;2024-03-08T15:35:59;13.90;99.90
31387;DHT22;69978;50.096;8.448;2024-03-08T15:38:33;14.00;99.90
31387;DHT22;69978;50.096;8.448;2024-03-08T15:40:59;14.00;99.90
31387;DHT22;69978;50.096;8.448;2024-03-08T15:43:25;14.00;99.90
31387;DHT22;69978;50.096;8.448;2024-03-08T15:45:50;13.90;99.90
31387;DHT22;69978;50.096;8.448;2024-03-08T15:48:16;13.70;99.90
31387;DHT22;69978;50.096;8.448;2024-03-08T15:50:42;13.70;99.90
31387;DHT22;69978;50.096;8.448;2024-03-08T15:53:08;13.60;99.90
31387;DHT22;69978;50.096;8.448;2024-03-08T15:55:34;13.60;99.90
31387;DHT22;69978;50.096;8.448;2024-03-08T15:58:00;13.60;99.90
31387;DHT22;69978;50.096;8.448;2024-03-08T16:00:26;13.60;99.90
31387;DHT22;69978;50.096;8.448;2024-03-08T16:03:10;13.40;99.90